createdAt,value
2022-09-07T00:00:58.244Z,0
2022-09-07T00:02:14.646Z,0
2022-09-07T00:03:30.839Z,0
2022-09-07T00:04:47.017Z,0
2022-09-07T00:06:03.210Z,0
2022-09-07T00:07:19.402Z,0
2022-09-07T00:08:35.361Z,0
2022-09-07T00:09:51.777Z,0
2022-09-07T00:11:07.970Z,0
2022-09-07T00:12:24.150Z,0
2022-09-07T00:13:40.347Z,0
2022-09-07T00:14:56.528Z,0
2022-09-07T00:16:11.500Z,0
2022-09-07T00:17:27.916Z,0
2022-09-07T00:18:43.882Z,0
2022-09-07T00:20:00.295Z,0
2022-09-07T00:21:16.261Z,0
2022-09-07T00:22:32.438Z,0
2022-09-07T00:23:48.628Z,0
2022-09-07T00:25:04.816Z,0
2022-09-07T00:26:21.220Z,0
2022-09-07T00:27:37.411Z,0
2022-09-07T00:28:53.384Z,0
2022-09-07T00:30:09.781Z,0
2022-09-07T00:31:25.739Z,0
2022-09-07T00:32:40.960Z,0
2022-09-07T00:33:57.377Z,0
2022-09-07T00:35:13.327Z,0
2022-09-07T00:36:29.504Z,0
2022-09-07T00:37:45.697Z,0
2022-09-07T00:39:01.878Z,0
2022-09-07T00:40:18.308Z,0
2022-09-07T00:41:34.492Z,0
2022-09-07T00:42:50.678Z,0
2022-09-07T00:44:06.876Z,0
2022-09-07T00:45:23.058Z,0
2022-09-07T00:46:39.016Z,0
2022-09-07T00:47:55.420Z,0
2022-09-07T00:49:10.637Z,0
2022-09-07T00:50:26.821Z,0
2022-09-07T00:51:42.777Z,0
2022-09-07T00:52:59.210Z,0
2022-09-07T00:54:15.138Z,0
2022-09-07T00:55:31.559Z,0
2022-09-07T00:56:47.523Z,0
2022-09-07T00:58:03.954Z,0
2022-09-07T00:59:19.898Z,0
2022-09-07T01:00:36.317Z,0
2022-09-07T01:01:52.264Z,0
2022-09-07T01:03:08.697Z,0
2022-09-07T01:04:24.873Z,0
2022-09-07T01:05:40.086Z,0
2022-09-07T01:06:56.275Z,0
2022-09-07T01:08:12.458Z,0
2022-09-07T01:09:28.419Z,0
2022-09-07T01:10:44.842Z,0
2022-09-07T01:12:01.024Z,0
2022-09-07T01:13:17.217Z,0
2022-09-07T01:14:33.165Z,0
2022-09-07T01:15:49.591Z,0
2022-09-07T01:17:05.530Z,0
2022-09-07T01:18:21.710Z,0
2022-09-07T01:19:38.142Z,0
2022-09-07T01:20:54.333Z,0
2022-09-07T01:22:09.302Z,0
2022-09-07T01:23:25.722Z,0
2022-09-07T01:24:41.675Z,0
2022-09-07T01:25:57.859Z,0
2022-09-07T01:27:14.293Z,0
2022-09-07T01:28:30.466Z,0
2022-09-07T01:29:46.428Z,0
2022-09-07T01:31:02.843Z,0
2022-09-07T01:32:18.799Z,0
2022-09-07T01:33:35.232Z,0
2022-09-07T01:34:51.418Z,0
2022-09-07T01:36:07.588Z,0
2022-09-07T01:37:23.540Z,0
2022-09-07T01:38:38.742Z,0
2022-09-07T01:39:54.924Z,0
2022-09-07T01:41:11.363Z,0
2022-09-07T01:42:27.552Z,0
2022-09-07T01:43:43.745Z,0
2022-09-07T01:44:59.689Z,0
2022-09-07T01:46:16.114Z,0
2022-09-07T01:47:32.053Z,0
2022-09-07T01:48:48.495Z,0
2022-09-07T01:50:04.670Z,0
2022-09-07T01:51:20.610Z,0
2022-09-07T01:52:36.805Z,0
2022-09-07T01:53:52.987Z,0
2022-09-07T01:55:08.187Z,0
2022-09-07T01:56:24.629Z,0
2022-09-07T01:57:40.807Z,0
2022-09-07T01:58:56.994Z,0
2022-09-07T02:00:12.951Z,0
2022-09-07T02:01:29.376Z,0
2022-09-07T02:02:44.341Z,0
2022-09-07T02:04:00.520Z,0
2022-09-07T02:05:16.960Z,0
2022-09-07T02:06:33.148Z,0
2022-09-07T02:07:49.085Z,0
2022-09-07T02:09:05.264Z,0
2022-09-07T02:10:21.455Z,0
2022-09-07T02:11:37.893Z,0
2022-09-07T02:12:53.829Z,0
2022-09-07T02:14:10.268Z,0
2022-09-07T02:15:26.205Z,0
2022-09-07T02:16:42.391Z,0
2022-09-07T02:17:58.575Z,0
2022-09-07T02:19:14.034Z,0
2022-09-07T02:20:30.236Z,0
2022-09-07T02:21:46.418Z,0
2022-09-07T02:23:02.600Z,0
2022-09-07T02:24:18.787Z,0
2022-09-07T02:25:34.720Z,0
2022-09-07T02:26:50.902Z,0
2022-09-07T02:28:07.347Z,0
2022-09-07T02:29:23.529Z,0
2022-09-07T02:30:39.469Z,0
2022-09-07T02:31:55.915Z,0
2022-09-07T02:33:11.846Z,0
2022-09-07T02:34:28.294Z,0
2022-09-07T02:35:43.499Z,0
2022-09-07T02:36:59.679Z,0
2022-09-07T02:38:15.601Z,0
2022-09-07T02:39:32.053Z,0
2022-09-07T02:40:47.979Z,0
2022-09-07T02:42:04.176Z,0
2022-09-07T02:43:20.619Z,0
2022-09-07T02:44:36.813Z,0
2022-09-07T02:45:52.725Z,0
2022-09-07T02:47:09.179Z,0
2022-09-07T02:48:25.114Z,0
2022-09-07T02:49:41.296Z,0
2022-09-07T02:50:57.750Z,0
2022-09-07T02:52:12.943Z,0
2022-09-07T02:53:29.127Z,0
2022-09-07T02:54:45.066Z,0
2022-09-07T02:56:01.245Z,0
2022-09-07T02:57:17.697Z,0
2022-09-07T02:58:33.883Z,0
2022-09-07T02:59:50.075Z,0
2022-09-07T03:01:06.004Z,0
2022-09-07T03:02:22.445Z,0
2022-09-07T03:03:38.378Z,0
2022-09-07T03:04:54.547Z,0
2022-09-07T03:06:10.745Z,0
2022-09-07T03:07:26.931Z,0
2022-09-07T03:08:42.137Z,0
2022-09-07T03:09:58.584Z,0
2022-09-07T03:11:14.517Z,0
2022-09-07T03:12:30.963Z,0
2022-09-07T03:13:47.148Z,0
2022-09-07T03:15:03.065Z,0
2022-09-07T03:16:19.254Z,0
2022-09-07T03:17:35.702Z,0
2022-09-07T03:18:51.636Z,0
2022-09-07T03:20:08.087Z,0
2022-09-07T03:21:24.260Z,0
2022-09-07T03:22:40.451Z,0
2022-09-07T03:23:56.382Z,0
2022-09-07T03:25:11.840Z,0
2022-09-07T03:26:27.763Z,0
2022-09-07T03:27:44.223Z,0
2022-09-07T03:29:00.141Z,0
2022-09-07T03:30:16.590Z,0
2022-09-07T03:31:32.510Z,0
2022-09-07T03:32:48.964Z,0
2022-09-07T03:34:04.896Z,0
2022-09-07T03:35:21.344Z,0
2022-09-07T03:36:37.541Z,0
2022-09-07T03:37:53.730Z,0
2022-09-07T03:39:09.633Z,0
2022-09-07T03:40:26.087Z,0
2022-09-07T03:41:41.038Z,0
2022-09-07T03:42:57.495Z,0
2022-09-07T03:44:13.676Z,0
2022-09-07T03:45:29.872Z,0
2022-09-07T03:46:45.777Z,0
2022-09-07T03:48:02.246Z,0
2022-09-07T03:49:18.147Z,0
2022-09-07T03:50:34.618Z,0
2022-09-07T03:51:50.529Z,0
2022-09-07T03:53:06.709Z,0
2022-09-07T03:54:23.171Z,0
2022-09-07T03:55:39.361Z,0
2022-09-07T03:56:55.273Z,0
2022-09-07T03:58:10.751Z,0
2022-09-07T03:59:26.674Z,0
2022-09-07T04:00:42.859Z,0
2022-09-07T04:01:59.034Z,0
2022-09-07T04:03:15.506Z,0
2022-09-07T04:04:31.419Z,0
2022-09-07T04:05:47.867Z,0
2022-09-07T04:07:04.053Z,0
2022-09-07T04:08:20.248Z,0
2022-09-07T04:09:36.433Z,0
2022-09-07T04:10:52.616Z,0
2022-09-07T04:12:08.538Z,0
2022-09-07T04:13:24.995Z,0
2022-09-07T04:14:40.201Z,0
2022-09-07T04:15:56.393Z,0
2022-09-07T04:17:12.310Z,0
2022-09-07T04:18:28.760Z,0
2022-09-07T04:19:44.679Z,0
2022-09-07T04:21:01.150Z,0
2022-09-07T04:22:17.331Z,0
2022-09-07T04:23:33.233Z,0
2022-09-07T04:24:49.420Z,0
2022-09-07T04:26:05.884Z,0
2022-09-07T04:27:21.804Z,0
2022-09-07T04:28:38.267Z,0
2022-09-07T04:29:54.454Z,0
2022-09-07T04:31:09.656Z,0
2022-09-07T04:32:25.568Z,0
2022-09-07T04:33:42.024Z,0
2022-09-07T04:34:57.940Z,0
2022-09-07T04:36:14.414Z,0
2022-09-07T04:37:30.584Z,5
2022-09-07T04:38:46.782Z,5
2022-09-07T04:40:02.684Z,5
2022-09-07T04:41:18.866Z,5
2022-09-07T04:42:35.072Z,5
2022-09-07T04:43:51.537Z,5
2022-09-07T04:45:07.445Z,5
2022-09-07T04:46:23.907Z,5
2022-09-07T04:47:38.832Z,5
2022-09-07T04:48:55.291Z,5
2022-09-07T04:50:11.209Z,5
2022-09-07T04:51:27.000Z,11
2022-09-07T04:52:43.847Z,11
2022-09-07T04:54:00.041Z,11
2022-09-07T04:55:15.939Z,11
2022-09-07T04:56:32.424Z,11
2022-09-07T04:57:48.000Z,11
2022-09-07T04:59:04.784Z,11
2022-09-07T05:00:20.978Z,11
2022-09-07T05:01:36.888Z,11
2022-09-07T05:02:53.065Z,11
2022-09-07T05:04:08.559Z,16
2022-09-07T05:05:24.755Z,16
2022-09-07T05:06:40.926Z,16
2022-09-07T05:07:57.123Z,16
2022-09-07T05:09:13.299Z,16
2022-09-07T05:10:29.204Z,16
2022-09-07T05:11:45.675Z,22
2022-09-07T05:13:01.585Z,22
2022-09-07T05:14:18.049Z,22
2022-09-07T05:15:34.237Z,22
2022-09-07T05:16:50.431Z,22
2022-09-07T05:18:06.345Z,22
2022-09-07T05:19:22.807Z,22
2022-09-07T05:20:37.730Z,22
2022-09-07T05:21:54.208Z,22
2022-09-07T05:23:10.105Z,22
2022-09-07T05:24:26.565Z,22
2022-09-07T05:25:42.477Z,22
2022-09-07T05:26:58.664Z,22
2022-09-07T05:28:14.845Z,28
2022-09-07T05:29:31.028Z,28
2022-09-07T05:30:47.502Z,28
2022-09-07T05:32:03.408Z,28
2022-09-07T05:33:19.605Z,28
2022-09-07T05:34:36.072Z,28
2022-09-07T05:35:51.969Z,28
2022-09-07T05:37:07.461Z,28
2022-09-07T05:38:23.665Z,28
2022-09-07T05:39:39.851Z,33
2022-09-07T05:40:55.731Z,33
2022-09-07T05:42:12.225Z,33
2022-09-07T05:43:28.417Z,33
2022-09-07T05:44:44.590Z,33
2022-09-07T05:46:00.793Z,33
2022-09-07T05:47:16.985Z,33
2022-09-07T05:48:32.877Z,33
2022-09-07T05:49:49.057Z,33
2022-09-07T05:51:05.257Z,33
2022-09-07T05:52:21.744Z,33
2022-09-07T05:53:37.895Z,39
2022-09-07T05:54:53.128Z,39
2022-09-07T05:56:09.322Z,39
2022-09-07T05:57:25.502Z,39
2022-09-07T05:58:41.670Z,45
2022-09-07T05:59:57.890Z,45
2022-09-07T06:01:14.034Z,45
2022-09-07T06:02:30.231Z,45
2022-09-07T06:03:46.430Z,50
2022-09-07T06:05:02.611Z,50
2022-09-07T06:06:18.834Z,50
2022-09-07T06:07:35.020Z,50
2022-09-07T06:08:51.213Z,50
2022-09-07T06:10:07.400Z,50
2022-09-07T06:11:22.573Z,56
2022-09-07T06:12:38.784Z,56
2022-09-07T06:13:54.944Z,56
2022-09-07T06:15:11.131Z,56
2022-09-07T06:16:27.364Z,56
2022-09-07T06:17:42.567Z,56
2022-09-07T06:18:58.723Z,56
2022-09-07T06:20:14.952Z,61
2022-09-07T06:21:31.123Z,61
2022-09-07T06:22:47.316Z,67
2022-09-07T06:24:03.475Z,67
2022-09-07T06:25:19.697Z,73
2022-09-07T06:26:35.847Z,73
2022-09-07T06:27:52.070Z,73
2022-09-07T06:29:08.237Z,73
2022-09-07T06:30:24.411Z,73
2022-09-07T06:31:40.619Z,73
2022-09-07T06:32:56.843Z,73
2022-09-07T06:34:12.002Z,78
2022-09-07T06:35:28.238Z,78
2022-09-07T06:36:44.424Z,78
2022-09-07T06:38:00.614Z,73
2022-09-07T06:39:16.805Z,73
2022-09-07T06:40:32.986Z,73
2022-09-07T06:41:49.139Z,73
2022-09-07T06:43:05.370Z,73
2022-09-07T06:44:21.505Z,73
2022-09-07T06:45:37.748Z,73
2022-09-07T06:46:53.938Z,73
2022-09-07T06:48:10.123Z,67
2022-09-07T06:49:26.271Z,67
2022-09-07T06:50:41.505Z,67
2022-09-07T06:51:57.670Z,67
2022-09-07T06:53:13.895Z,67
2022-09-07T06:54:30.079Z,67
2022-09-07T06:55:46.219Z,61
2022-09-07T06:57:02.410Z,61
2022-09-07T06:58:18.650Z,61
2022-09-07T06:59:34.789Z,61
2022-09-07T07:00:51.015Z,61
2022-09-07T07:02:07.209Z,61
2022-09-07T07:03:23.404Z,56
2022-09-07T07:04:39.544Z,61
2022-09-07T07:05:55.786Z,61
2022-09-07T07:07:10.950Z,56
2022-09-07T07:08:27.139Z,61
2022-09-07T07:09:43.355Z,56
2022-09-07T07:10:59.550Z,56
2022-09-07T07:13:31.935Z,56
2022-09-07T07:14:48.066Z,56
2022-09-07T07:16:04.315Z,56
2022-09-07T07:17:20.491Z,56
2022-09-07T07:18:36.677Z,61
2022-09-07T07:19:52.839Z,61
2022-09-07T07:21:09.071Z,61
2022-09-07T07:22:25.244Z,67
2022-09-07T07:23:40.452Z,67
2022-09-07T07:24:56.640Z,73
2022-09-07T07:26:12.840Z,73
2022-09-07T07:27:28.981Z,78
2022-09-07T07:28:45.222Z,78
2022-09-07T07:30:01.403Z,78
2022-09-07T07:31:17.603Z,84
2022-09-07T07:32:33.780Z,84
2022-09-07T07:33:49.970Z,90
2022-09-07T07:35:06.122Z,90
2022-09-07T07:36:22.357Z,95
2022-09-07T07:37:38.544Z,95
2022-09-07T07:38:54.725Z,101
2022-09-07T07:40:09.942Z,101
2022-09-07T07:41:26.081Z,106
2022-09-07T07:42:42.254Z,106
2022-09-07T07:43:58.506Z,106
2022-09-07T07:45:14.683Z,112
2022-09-07T07:46:30.827Z,112
2022-09-07T07:47:47.076Z,112
2022-09-07T07:49:03.250Z,106
2022-09-07T07:50:19.438Z,106
2022-09-07T07:51:35.627Z,101
2022-09-07T07:52:51.827Z,95
2022-09-07T07:54:08.015Z,90
2022-09-07T07:55:24.208Z,90
2022-09-07T07:56:39.416Z,84
2022-09-07T07:57:55.549Z,78
2022-09-07T07:59:11.782Z,78
2022-09-07T08:00:27.971Z,73
2022-09-07T08:01:44.101Z,73
2022-09-07T08:03:00.353Z,67
2022-09-07T08:04:16.552Z,67
2022-09-07T08:05:32.671Z,61
2022-09-07T08:06:48.915Z,67
2022-09-07T08:08:05.058Z,67
2022-09-07T08:09:21.303Z,73
2022-09-07T08:10:37.484Z,78
2022-09-07T08:11:53.634Z,78
2022-09-07T08:13:08.879Z,78
2022-09-07T08:14:25.072Z,78
2022-09-07T08:15:41.202Z,78
2022-09-07T08:16:57.462Z,78
2022-09-07T08:18:13.583Z,78
2022-09-07T08:19:29.834Z,84
2022-09-07T08:20:45.972Z,84
2022-09-07T08:22:02.211Z,84
2022-09-07T08:23:18.396Z,84
2022-09-07T08:24:34.530Z,84
2022-09-07T08:25:50.777Z,84
2022-09-07T08:27:06.961Z,84
2022-09-07T08:28:23.157Z,84
2022-09-07T08:29:38.354Z,84
2022-09-07T08:30:54.544Z,90
2022-09-07T08:32:10.734Z,90
2022-09-07T08:33:26.865Z,90
2022-09-07T08:34:43.117Z,90
2022-09-07T08:35:59.248Z,95
2022-09-07T08:37:15.442Z,95
2022-09-07T08:38:31.695Z,95
2022-09-07T08:39:47.878Z,95
2022-09-07T08:41:04.069Z,95
2022-09-07T08:42:20.252Z,95
2022-09-07T08:43:36.378Z,95
2022-09-07T08:44:52.640Z,95
2022-09-07T08:46:07.769Z,95
2022-09-07T08:47:23.959Z,95
2022-09-07T08:48:40.164Z,95
2022-09-07T08:49:56.342Z,95
2022-09-07T08:51:12.597Z,95
2022-09-07T08:52:28.786Z,101
2022-09-07T08:53:44.975Z,101
2022-09-07T08:55:01.172Z,101
2022-09-07T08:56:17.357Z,101
2022-09-07T08:57:33.534Z,101
2022-09-07T08:58:49.661Z,101
2022-09-07T09:00:05.917Z,106
2022-09-07T09:01:22.036Z,106
2022-09-07T09:02:37.244Z,106
2022-09-07T09:03:53.512Z,106
2022-09-07T09:05:09.692Z,106
2022-09-07T09:06:25.808Z,106
2022-09-07T09:07:42.074Z,106
2022-09-07T09:08:58.185Z,106
2022-09-07T09:10:14.456Z,112
2022-09-07T09:11:30.563Z,112
2022-09-07T09:12:46.834Z,112
2022-09-07T09:14:02.954Z,106
2022-09-07T09:15:19.216Z,106
2022-09-07T09:16:35.329Z,106
2022-09-07T09:17:51.580Z,106
2022-09-07T09:19:06.719Z,112
2022-09-07T09:20:22.977Z,112
2022-09-07T09:21:39.093Z,112
2022-09-07T09:22:55.356Z,118
2022-09-07T09:24:11.472Z,118
2022-09-07T09:25:27.740Z,118
2022-09-07T09:26:43.934Z,118
2022-09-07T09:28:00.053Z,118
2022-09-07T09:29:16.240Z,118
2022-09-07T09:30:32.499Z,118
2022-09-07T09:31:48.620Z,118
2022-09-07T09:33:04.877Z,118
2022-09-07T09:34:20.984Z,118
2022-09-07T09:35:36.259Z,118
2022-09-07T09:36:52.375Z,118
2022-09-07T09:38:08.645Z,118
2022-09-07T09:39:24.754Z,118
2022-09-07T09:40:40.961Z,123
2022-09-07T09:41:57.213Z,123
2022-09-07T09:43:13.403Z,129
2022-09-07T09:44:29.525Z,129
2022-09-07T09:45:45.785Z,135
2022-09-07T09:47:01.904Z,135
2022-09-07T09:48:18.161Z,140
2022-09-07T09:49:34.355Z,146
2022-09-07T09:50:50.529Z,151
2022-09-07T09:52:05.747Z,157
2022-09-07T09:53:21.860Z,157
2022-09-07T09:54:38.053Z,163
2022-09-07T09:55:54.315Z,163
2022-09-07T09:57:10.509Z,163
2022-09-07T09:58:26.687Z,157
2022-09-07T09:59:42.796Z,151
2022-09-07T10:00:58.980Z,151
2022-09-07T10:02:15.182Z,151
2022-09-07T10:03:31.446Z,157
2022-09-07T10:04:47.556Z,157
2022-09-07T10:06:03.741Z,151
2022-09-07T10:07:19.937Z,157
2022-09-07T10:08:35.216Z,163
2022-09-07T10:09:51.321Z,163
2022-09-07T10:11:07.591Z,168
2022-09-07T10:12:23.712Z,180
2022-09-07T10:13:39.971Z,185
2022-09-07T10:14:56.085Z,191
2022-09-07T10:16:12.360Z,202
2022-09-07T10:17:28.543Z,230
2022-09-07T10:18:44.650Z,247
2022-09-07T10:20:00.832Z,264
2022-09-07T10:21:17.119Z,275
2022-09-07T10:22:33.225Z,247
2022-09-07T10:23:49.477Z,258
2022-09-07T10:25:04.616Z,275
2022-09-07T10:26:20.880Z,275
2022-09-07T10:27:37.070Z,281
2022-09-07T10:28:53.253Z,286
2022-09-07T10:30:09.448Z,298
2022-09-07T10:31:25.548Z,286
2022-09-07T10:32:40.858Z,264
2022-09-07T10:33:57.042Z,241
2022-09-07T10:35:13.234Z,213
2022-09-07T10:36:29.408Z,196
2022-09-07T10:37:45.524Z,185
2022-09-07T10:39:01.793Z,180
2022-09-07T10:40:17.887Z,174
2022-09-07T10:41:34.169Z,174
2022-09-07T10:42:50.371Z,168
2022-09-07T10:44:06.459Z,163
2022-09-07T10:45:22.657Z,163
2022-09-07T10:46:38.918Z,163
2022-09-07T10:47:55.112Z,168
2022-09-07T10:49:10.328Z,174
2022-09-07T10:50:26.508Z,180
2022-09-07T10:51:42.710Z,191
2022-09-07T10:52:58.801Z,196
2022-09-07T10:54:15.074Z,202
2022-09-07T10:55:31.187Z,202
2022-09-07T10:56:47.372Z,202
2022-09-07T10:58:03.654Z,202
2022-09-07T10:59:19.838Z,196
2022-09-07T11:00:35.924Z,196
2022-09-07T11:01:52.215Z,191
2022-09-07T11:03:08.319Z,191
2022-09-07T11:04:24.581Z,185
2022-09-07T11:05:39.696Z,180
2022-09-07T11:06:55.979Z,180
2022-09-07T11:08:12.084Z,174
2022-09-07T11:09:28.362Z,174
2022-09-07T11:10:44.466Z,180
2022-09-07T11:12:00.751Z,185
2022-09-07T11:13:16.834Z,196
2022-09-07T11:14:33.113Z,208
2022-09-07T11:15:49.219Z,213
2022-09-07T11:17:05.503Z,213
2022-09-07T11:18:21.589Z,213
2022-09-07T11:19:37.783Z,219
2022-09-07T11:20:54.067Z,225
2022-09-07T11:22:09.278Z,236
2022-09-07T11:23:25.368Z,253
2022-09-07T11:24:41.638Z,281
2022-09-07T11:25:57.845Z,303
2022-09-07T11:27:14.020Z,331
2022-09-07T11:28:30.220Z,360
2022-09-07T11:29:46.402Z,388
2022-09-07T11:31:02.488Z,416
2022-09-07T11:32:18.776Z,472
2022-09-07T11:33:34.970Z,478
2022-09-07T11:34:51.057Z,517
2022-09-07T11:36:07.342Z,607
2022-09-07T11:37:23.536Z,545
2022-09-07T11:38:38.739Z,483
2022-09-07T11:39:54.836Z,517
2022-09-07T11:41:11.118Z,641
2022-09-07T11:42:27.314Z,495
2022-09-07T11:43:43.499Z,568
2022-09-07T11:44:59.582Z,444
2022-09-07T11:46:15.787Z,489
2022-09-07T11:47:31.958Z,478
2022-09-07T11:48:48.260Z,421
2022-09-07T11:50:04.354Z,421
2022-09-07T11:51:20.643Z,1580
2022-09-07T11:52:36.827Z,1321
2022-09-07T11:53:52.920Z,405
2022-09-07T11:55:08.216Z,253
2022-09-07T11:56:24.298Z,196
2022-09-07T11:57:40.596Z,151
2022-09-07T11:58:56.796Z,129
2022-09-07T12:00:12.981Z,118
2022-09-07T12:01:29.061Z,106
2022-09-07T12:02:45.360Z,112
2022-09-07T12:04:01.450Z,129
2022-09-07T12:05:17.727Z,157
2022-09-07T12:06:33.912Z,191
2022-09-07T12:07:50.100Z,225
2022-09-07T12:09:06.293Z,253
2022-09-07T12:10:22.482Z,264
2022-09-07T12:11:37.596Z,270
2022-09-07T12:12:53.786Z,298
2022-09-07T12:14:10.076Z,343
2022-09-07T12:15:26.249Z,641
2022-09-07T12:16:42.351Z,860
2022-09-07T12:17:58.637Z,1282
2022-09-07T12:19:14.714Z,793
2022-09-07T12:20:31.010Z,562
2022-09-07T12:21:47.211Z,765
2022-09-07T12:23:03.391Z,1186
2022-09-07T12:24:19.489Z,1265
2022-09-07T12:25:35.659Z,1440
2022-09-07T12:26:51.958Z,675
2022-09-07T12:28:07.173Z,855
2022-09-07T12:29:23.355Z,551
2022-09-07T12:30:39.550Z,478
2022-09-07T12:31:55.624Z,961
2022-09-07T12:33:11.914Z,804
2022-09-07T12:34:28.002Z,596
2022-09-07T12:35:44.292Z,376
2022-09-07T12:37:00.481Z,326
2022-09-07T12:38:16.560Z,298
2022-09-07T12:39:32.770Z,286
2022-09-07T12:40:49.053Z,393
2022-09-07T12:42:05.255Z,348
2022-09-07T12:43:21.437Z,298
2022-09-07T12:44:36.635Z,270
2022-09-07T12:45:52.830Z,258
2022-09-07T12:47:08.904Z,376
2022-09-07T12:48:25.210Z,213
2022-09-07T12:49:41.279Z,219
2022-09-07T12:50:57.598Z,315
2022-09-07T12:52:13.780Z,247
2022-09-07T12:53:29.958Z,208
2022-09-07T12:54:46.038Z,191
2022-09-07T12:56:02.337Z,180
2022-09-07T12:57:18.534Z,168
2022-09-07T12:58:34.606Z,163
2022-09-07T12:59:50.906Z,157
2022-09-07T13:01:06.121Z,151
2022-09-07T13:02:22.300Z,157
2022-09-07T13:03:38.385Z,157
2022-09-07T13:04:54.574Z,163
2022-09-07T13:06:10.868Z,163
2022-09-07T13:07:27.068Z,168
2022-09-07T13:08:43.245Z,168
2022-09-07T13:09:59.434Z,174
2022-09-07T13:11:15.631Z,168
2022-09-07T13:12:31.810Z,157
2022-09-07T13:13:47.999Z,151
2022-09-07T13:15:04.200Z,157
2022-09-07T13:16:20.260Z,168
2022-09-07T13:17:35.463Z,196
2022-09-07T13:18:51.779Z,258
2022-09-07T13:20:07.851Z,208
2022-09-07T13:21:24.152Z,202
2022-09-07T13:22:40.352Z,196
2022-09-07T13:23:56.545Z,202
2022-09-07T13:25:12.604Z,196
2022-09-07T13:26:28.924Z,185
2022-09-07T13:27:45.109Z,168
2022-09-07T13:29:01.167Z,146
2022-09-07T13:30:17.371Z,140
2022-09-07T13:31:33.550Z,129
2022-09-07T13:32:49.738Z,129
2022-09-07T13:34:05.059Z,129
2022-09-07T13:35:21.136Z,140
2022-09-07T13:36:37.446Z,151
2022-09-07T13:37:53.628Z,151
2022-09-07T13:39:09.705Z,151
2022-09-07T13:40:26.013Z,151
2022-09-07T13:41:42.195Z,146
2022-09-07T13:42:58.396Z,140
2022-09-07T13:44:14.573Z,140
2022-09-07T13:45:30.764Z,140
2022-09-07T13:46:46.960Z,146
2022-09-07T13:48:03.012Z,174
2022-09-07T13:49:19.328Z,247
2022-09-07T13:50:34.533Z,945
2022-09-07T13:51:50.729Z,382
2022-09-07T13:53:06.786Z,331
2022-09-07T13:54:23.114Z,1175
2022-09-07T13:55:39.166Z,455
2022-09-07T13:56:55.482Z,995
2022-09-07T13:58:11.552Z,1423
2022-09-07T13:59:27.859Z,1760
2022-09-07T14:00:44.054Z,1760
2022-09-07T14:02:00.117Z,1726
2022-09-07T14:03:16.299Z,1316
2022-09-07T14:04:32.627Z,871
2022-09-07T14:05:48.814Z,641
2022-09-07T14:07:04.004Z,360
2022-09-07T14:08:20.067Z,1063
2022-09-07T14:09:36.397Z,1563
2022-09-07T14:10:52.447Z,1192
2022-09-07T14:12:08.770Z,624
2022-09-07T14:13:24.965Z,371
2022-09-07T14:14:41.144Z,343
2022-09-07T14:15:57.206Z,281
2022-09-07T14:17:13.530Z,219
2022-09-07T14:18:29.582Z,196
2022-09-07T14:19:45.783Z,230
2022-09-07T14:21:02.097Z,213
2022-09-07T14:22:18.277Z,202
2022-09-07T14:23:33.358Z,208
2022-09-07T14:24:49.680Z,213
2022-09-07T14:26:05.864Z,225
2022-09-07T14:27:22.049Z,258
2022-09-07T14:28:38.249Z,275
2022-09-07T14:29:54.435Z,281
2022-09-07T14:31:10.633Z,292
2022-09-07T14:32:26.684Z,292
2022-09-07T14:33:42.871Z,281
2022-09-07T14:34:59.192Z,264
2022-09-07T14:36:15.249Z,247
2022-09-07T14:37:31.571Z,219
2022-09-07T14:38:47.764Z,163
2022-09-07T14:40:02.967Z,135
2022-09-07T14:41:19.160Z,135
2022-09-07T14:42:35.345Z,135
2022-09-07T14:43:51.526Z,135
2022-09-07T14:45:07.714Z,135
2022-09-07T14:46:23.907Z,129
2022-09-07T14:47:39.119Z,118
2022-09-07T14:48:55.178Z,118
2022-09-07T14:50:11.489Z,118
2022-09-07T14:51:27.685Z,123
2022-09-07T14:52:43.868Z,135
2022-09-07T14:54:00.062Z,146
2022-09-07T14:55:16.256Z,157
2022-09-07T14:56:32.442Z,157
2022-09-07T14:57:48.494Z,163
2022-09-07T14:59:04.810Z,168
2022-09-07T15:00:21.018Z,163
2022-09-07T15:01:37.196Z,157
2022-09-07T15:02:53.385Z,146
2022-09-07T15:04:08.584Z,135
2022-09-07T15:05:24.776Z,135
2022-09-07T15:06:40.965Z,129
2022-09-07T15:07:57.162Z,129
2022-09-07T15:09:13.354Z,129
2022-09-07T15:10:29.528Z,135
2022-09-07T15:11:45.581Z,135
2022-09-07T15:13:01.909Z,140
2022-09-07T15:14:18.105Z,157
2022-09-07T15:15:34.288Z,163
2022-09-07T15:16:50.463Z,163
2022-09-07T15:18:06.518Z,163
2022-09-07T15:19:22.702Z,157
2022-09-07T15:20:38.055Z,146
2022-09-07T15:21:54.100Z,140
2022-09-07T15:23:10.414Z,146
2022-09-07T15:24:26.614Z,151
2022-09-07T15:25:42.788Z,151
2022-09-07T15:26:58.846Z,151
2022-09-07T15:28:15.163Z,157
2022-09-07T15:29:31.212Z,163
2022-09-07T15:30:47.543Z,168
2022-09-07T15:32:03.596Z,168
2022-09-07T15:33:19.927Z,168
2022-09-07T15:34:36.111Z,168
2022-09-07T15:35:52.159Z,168
2022-09-07T15:37:07.362Z,174
2022-09-07T15:38:23.683Z,180
2022-09-07T15:39:39.867Z,180
2022-09-07T15:40:56.052Z,180
2022-09-07T15:42:12.108Z,168
2022-09-07T15:43:28.440Z,151
2022-09-07T15:44:44.623Z,140
2022-09-07T15:46:00.664Z,129
2022-09-07T15:47:16.858Z,123
2022-09-07T15:48:33.031Z,106
2022-09-07T15:49:49.230Z,90
2022-09-07T15:51:05.559Z,90
2022-09-07T15:52:21.756Z,90
2022-09-07T15:53:36.946Z,95
2022-09-07T15:54:53.130Z,101
2022-09-07T15:56:09.325Z,101
2022-09-07T15:57:25.362Z,95
2022-09-07T15:58:41.699Z,90
2022-09-07T15:59:57.740Z,84
2022-09-07T16:01:13.926Z,84
2022-09-07T16:02:30.256Z,95
2022-09-07T16:03:46.453Z,101
2022-09-07T16:05:02.489Z,106
2022-09-07T16:06:18.818Z,95
2022-09-07T16:07:34.860Z,84
2022-09-07T16:08:51.192Z,73
2022-09-07T16:10:06.412Z,67
2022-09-07T16:11:22.430Z,67
2022-09-07T16:12:38.633Z,67
2022-09-07T16:13:54.968Z,67
2022-09-07T16:15:11.003Z,67
2022-09-07T16:16:27.349Z,61
2022-09-07T16:17:43.524Z,56
2022-09-07T16:18:59.720Z,50
2022-09-07T16:20:15.741Z,50
2022-09-07T16:21:32.088Z,45
2022-09-07T16:22:48.121Z,39
2022-09-07T16:24:04.458Z,33
2022-09-07T16:25:20.490Z,33
2022-09-07T16:26:35.856Z,33
2022-09-07T16:27:51.897Z,33
2022-09-07T16:29:08.220Z,28
2022-09-07T16:30:24.270Z,28
2022-09-07T16:31:40.604Z,22
2022-09-07T16:32:56.791Z,22
2022-09-07T16:34:12.979Z,16
2022-09-07T16:35:29.013Z,16
2022-09-07T16:36:45.358Z,16
2022-09-07T16:38:01.375Z,16
2022-09-07T16:39:17.732Z,22
2022-09-07T16:40:33.907Z,22
2022-09-07T16:41:50.098Z,16
2022-09-07T16:43:05.160Z,16
2022-09-07T16:44:21.498Z,16
2022-09-07T16:45:37.518Z,16
2022-09-07T16:46:53.877Z,16
2022-09-07T16:48:10.055Z,22
2022-09-07T16:49:26.237Z,22
2022-09-07T16:50:42.440Z,22
2022-09-07T16:51:58.613Z,22
2022-09-07T16:53:14.655Z,22
2022-09-07T16:54:30.992Z,22
2022-09-07T16:55:47.182Z,16
2022-09-07T16:57:03.359Z,16
2022-09-07T16:58:19.390Z,16
2022-09-07T16:59:34.757Z,11
2022-09-07T17:00:50.794Z,11
2022-09-07T17:02:07.138Z,11
2022-09-07T17:03:23.328Z,11
2022-09-07T17:04:39.340Z,11
2022-09-07T17:05:55.685Z,5
2022-09-07T17:07:11.710Z,5
2022-09-07T17:08:27.914Z,5
2022-09-07T17:09:44.250Z,5
2022-09-07T17:11:00.438Z,11
2022-09-07T17:12:16.631Z,11
2022-09-07T17:13:32.819Z,11
2022-09-07T17:14:49.010Z,5
2022-09-07T17:16:04.051Z,5
2022-09-07T17:17:20.404Z,5
2022-09-07T17:18:36.586Z,0
2022-09-07T17:19:52.766Z,0
2022-09-07T17:21:08.791Z,0
2022-09-07T17:22:25.136Z,0
2022-09-07T17:23:41.171Z,0
2022-09-07T17:24:57.349Z,0
2022-09-07T17:26:13.710Z,0
2022-09-07T17:27:29.902Z,0
2022-09-07T17:28:45.916Z,0
2022-09-07T17:30:02.101Z,0
2022-09-07T17:31:18.297Z,0
2022-09-07T17:32:33.619Z,0
2022-09-07T17:33:49.818Z,0
2022-09-07T17:35:05.992Z,0
2022-09-07T17:36:22.046Z,0
2022-09-07T17:37:38.377Z,0
2022-09-07T17:38:54.431Z,0
2022-09-07T17:40:10.744Z,0
2022-09-07T17:41:26.938Z,0
2022-09-07T17:42:42.986Z,0
2022-09-07T17:43:59.173Z,0
2022-09-07T17:45:15.490Z,0
2022-09-07T17:46:31.678Z,0
2022-09-07T17:47:47.880Z,0
2022-09-07T17:49:02.933Z,0
2022-09-07T17:50:19.140Z,0
2022-09-07T17:51:35.459Z,0
2022-09-07T17:52:51.639Z,0
2022-09-07T17:54:07.822Z,0
2022-09-07T17:55:23.873Z,0
2022-09-07T17:56:40.058Z,0
2022-09-07T17:57:56.393Z,0
2022-09-07T17:59:12.576Z,0
2022-09-07T18:00:28.768Z,0
2022-09-07T18:01:44.818Z,0
2022-09-07T18:03:01.135Z,0